Pretty Lady — 9HVY9 — position and weather

sailwx.info

Track history (hours):
 
Tides and Currents Weather Stations Pressure Air Temp Water Temp Dewpoint Dewpoint Depression Visibility Wind Speed Wind Dir Waves Ship Positions

Pretty Lady

Last reported at 2016-Feb-09 23:17 UTC. Time now 2016-Feb-10 02:38 UTC.
Position N 38°19' W 000°27'.

Length 189 m; draft 9.1 m.

Type: Cargo ship. MMSI: 249617000.

Date/timePositionNaut miles runAvg speedWind from/ knotsBaromVisibWave heightAir tempDewpointWater temp
2016-Feb-09 23:17N 38°19' W 000°27'0 0.0
2016-Feb-09 20:05N 38°19' W 000°26'0 0.0
2016-Feb-09 18:29N 38°19' W 000°26'0 0.0
2016-Feb-09 17:29N 38°19' W 000°26'0 0.0
2016-Feb-09 16:23N 38°19' W 000°26'1 1.0
2016-Feb-09 15:30N 38°19' W 000°25'8 8.7
2016-Feb-09 14:33N 38°18' W 000°15'1312.7
2016-Feb-09 13:31N 38°16' E 000°02'  
2016-Feb-07 07:32N 36°38' E 013°42'1312.9
2016-Feb-07 06:30N 36°33' E 013°57'1313.7
2016-Feb-07 05:33N 36°29' E 014°13'1414.1
2016-Feb-07 04:34N 36°25' E 014°29'1413.8
2016-Feb-07 03:33N 36°23' E 014°46'456 9.2
2016-Feb-05 02:07N 37°47' E 024°08'11 6.6
2016-Feb-05 00:32N 37°51' E 024°21'9 9.2
2016-Feb-04 23:33N 37°54' E 024°32'  
2016-Feb-01 16:25N 40°45' E 029°29'8 9.4
2016-Feb-01 15:33N 40°43' E 029°19'1 1.4
2016-Feb-01 14:33N 40°43' E 029°21'1 0.6
2016-Feb-01 13:32N 40°42' E 029°20'1 0.8
2016-Feb-01 12:33N 40°42' E 029°19'1 0.8
2016-Feb-01 11:32N 40°42' E 029°18'2 1.6
2016-Feb-01 10:33N 40°44' E 029°19'1 0.7
2016-Feb-01 09:33N 40°44' E 029°18'1 0.8
2016-Feb-01 08:33N 40°44' E 029°17'1 1.2
2016-Feb-01 07:33N 40°43' E 029°15'7 6.8
2016-Feb-01 06:33N 40°43' E 029°06'1110.9
2016-Feb-01 05:31N 40°43' E 028°52'  
Track history (hours):
 
Tides and Currents Weather Stations Pressure Air Temp Water Temp Dewpoint Dewpoint Depression Visibility Wind Speed Wind Dir Waves Ship Positions

Pretty Lady

Last reported at 2016-Feb-09 23:17 UTC. Time now 2016-Feb-10 02:38 UTC.
Position N 38°19' W 000°27'.

Length 189 m; draft 9.1 m.

Type: Cargo ship. MMSI: 249617000.

Date/timePositionNaut miles runAvg speedWind from/ knotsBaromVisibWave heightAir tempDewpointWater temp
2016-Feb-09 23:17N 38°19' W 000°27'0 0.0
2016-Feb-09 20:05N 38°19' W 000°26'0 0.0
2016-Feb-09 18:29N 38°19' W 000°26'0 0.0
2016-Feb-09 17:29N 38°19' W 000°26'0 0.0
2016-Feb-09 16:23N 38°19' W 000°26'1 1.0
2016-Feb-09 15:30N 38°19' W 000°25'8 8.7
2016-Feb-09 14:33N 38°18' W 000°15'1312.7
2016-Feb-09 13:31N 38°16' E 000°02'  
2016-Feb-07 07:32N 36°38' E 013°42'1312.9
2016-Feb-07 06:30N 36°33' E 013°57'1313.7
2016-Feb-07 05:33N 36°29' E 014°13'1414.1
2016-Feb-07 04:34N 36°25' E 014°29'1413.8
2016-Feb-07 03:33N 36°23' E 014°46'456 9.2
2016-Feb-05 02:07N 37°47' E 024°08'11 6.6
2016-Feb-05 00:32N 37°51' E 024°21'9 9.2
2016-Feb-04 23:33N 37°54' E 024°32'  
2016-Feb-01 16:25N 40°45' E 029°29'8 9.4
2016-Feb-01 15:33N 40°43' E 029°19'1 1.4
2016-Feb-01 14:33N 40°43' E 029°21'1 0.6
2016-Feb-01 13:32N 40°42' E 029°20'1 0.8
2016-Feb-01 12:33N 40°42' E 029°19'1 0.8
2016-Feb-01 11:32N 40°42' E 029°18'2 1.6
2016-Feb-01 10:33N 40°44' E 029°19'1 0.7
2016-Feb-01 09:33N 40°44' E 029°18'1 0.8
2016-Feb-01 08:33N 40°44' E 029°17'1 1.2
2016-Feb-01 07:33N 40°43' E 029°15'7 6.8
2016-Feb-01 06:33N 40°43' E 029°06'1110.9
2016-Feb-01 05:31N 40°43' E 028°52'  

Dump ship's entire track history